createdAt,value
2023-02-25T00:03:44.851Z,3.97
2023-02-25T00:08:50.536Z,6.53
2023-02-25T00:13:55.906Z,4.63
2023-02-25T00:19:00.128Z,7.35
2023-02-25T00:24:16.066Z,4.30
2023-02-25T00:29:20.901Z,5.97
2023-02-25T00:34:24.837Z,7.15
2023-02-25T00:39:42.707Z,5.93
2023-02-25T00:44:52.051Z,6.93
2023-02-25T00:49:55.848Z,7.30
2023-02-25T00:54:59.969Z,8.15
2023-02-25T01:00:10.542Z,7.55
2023-02-25T01:05:15.685Z,8.07
2023-02-25T01:10:19.858Z,8.15
2023-02-25T01:15:23.653Z,8.27
2023-02-25T01:20:30.673Z,6.47
2023-02-25T01:25:34.654Z,8.38
2023-02-25T01:30:39.281Z,9.82
2023-02-25T01:35:43.001Z,7.18
2023-02-25T01:40:48.088Z,8.90
2023-02-25T01:45:54.983Z,10.52
2023-02-25T01:51:11.561Z,9.38
2023-02-25T01:56:21.680Z,7.97
2023-02-25T02:06:38.714Z,8.50
2023-02-25T02:11:44.055Z,8.60
2023-02-25T02:17:15.217Z,12.00
2023-02-25T02:22:32.418Z,9.68
2023-02-25T02:27:52.982Z,9.82
2023-02-25T02:33:25.180Z,10.55
2023-02-25T02:38:55.278Z,8.35
2023-02-25T02:44:29.097Z,12.25
2023-02-25T02:49:55.911Z,11.45
2023-02-25T02:55:23.619Z,11.80
2023-02-25T03:00:36.771Z,13.73
2023-02-25T03:05:44.697Z,12.35
2023-02-25T03:10:49.933Z,14.32
2023-02-25T03:15:54.891Z,15.38
2023-02-25T03:21:02.934Z,15.25
2023-02-25T03:26:25.070Z,10.98
2023-02-25T03:31:40.555Z,12.93
2023-02-25T03:36:51.673Z,14.73
2023-02-25T03:41:58.561Z,10.88
2023-02-25T03:47:05.093Z,13.70
2023-02-25T03:52:15.239Z,13.90
2023-02-25T03:57:26.571Z,14.20
2023-02-25T04:02:34.313Z,15.02
2023-02-25T04:07:38.781Z,13.88
2023-02-25T04:12:43.341Z,14.35
2023-02-25T04:17:47.706Z,14.77
2023-02-25T04:22:51.760Z,14.55
2023-02-25T04:27:55.586Z,14.85
2023-02-25T04:32:59.499Z,14.43
2023-02-25T04:38:03.282Z,12.45
2023-02-25T04:43:07.307Z,13.88
2023-02-25T04:48:11.285Z,15.65
2023-02-25T04:53:15.216Z,14.23
2023-02-25T04:58:19.166Z,15.05
2023-02-25T05:03:22.985Z,15.93
2023-02-25T05:08:27.153Z,14.70
2023-02-25T05:13:31.157Z,16.38
2023-02-25T05:18:41.162Z,16.05
2023-02-25T05:23:46.570Z,16.38
2023-02-25T05:28:52.559Z,15.32
2023-02-25T05:33:56.521Z,17.23
2023-02-25T05:39:04.434Z,14.85
2023-02-25T05:44:08.634Z,14.70
2023-02-25T05:49:12.534Z,15.65
2023-02-25T05:54:17.341Z,16.00
2023-02-25T05:59:21.344Z,13.25
2023-02-25T06:04:25.097Z,16.80
2023-02-25T06:09:29.966Z,17.52
2023-02-25T06:14:33.823Z,14.57
2023-02-25T06:19:37.767Z,12.15
2023-02-25T06:24:41.730Z,15.90
2023-02-25T06:29:49.155Z,14.88
2023-02-25T06:34:53.737Z,14.05
2023-02-25T06:39:57.695Z,17.20
2023-02-25T06:45:01.701Z,14.70
2023-02-25T06:50:08.637Z,16.50
2023-02-25T06:55:12.644Z,15.60
2023-02-25T07:00:17.042Z,15.00
2023-02-25T07:05:21.031Z,16.90
2023-02-25T07:10:24.910Z,17.27
2023-02-25T07:15:28.952Z,16.35
2023-02-25T07:20:32.752Z,15.30
2023-02-25T07:25:38.954Z,17.73
2023-02-25T07:30:43.044Z,17.58
2023-02-25T07:35:48.028Z,13.98
2023-02-25T07:40:51.931Z,17.58
2023-02-25T07:45:58.376Z,16.60
2023-02-25T07:51:07.396Z,15.35
2023-02-25T07:56:12.656Z,16.35
2023-02-25T08:01:35.738Z,15.00
2023-02-25T08:06:42.697Z,17.58
2023-02-25T08:11:46.723Z,15.15
2023-02-25T08:16:51.795Z,17.73
2023-02-25T08:21:55.674Z,17.17
2023-02-25T08:26:59.762Z,16.02
2023-02-25T08:32:06.774Z,14.93
2023-02-25T08:37:14.812Z,16.02
2023-02-25T08:42:21.399Z,13.93
2023-02-25T08:47:25.077Z,19.15
2023-02-25T08:52:35.404Z,14.07
2023-02-25T08:57:39.484Z,15.63
2023-02-25T09:02:45.710Z,16.27
2023-02-25T09:07:49.633Z,16.40
2023-02-25T09:12:54.097Z,15.13
2023-02-25T09:17:58.066Z,18.48
2023-02-25T09:23:02.353Z,14.30
2023-02-25T09:28:06.280Z,18.88
2023-02-25T09:33:10.406Z,16.02
2023-02-25T09:38:14.338Z,14.43
2023-02-25T09:43:31.303Z,14.60
2023-02-25T09:48:46.418Z,14.52
2023-02-25T09:54:31.054Z,15.68
2023-02-25T09:59:36.321Z,14.48
2023-02-25T10:05:05.400Z,16.70
2023-02-25T10:10:27.345Z,18.38
2023-02-25T10:15:41.148Z,18.40
2023-02-25T10:21:33.179Z,18.30
2023-02-25T10:26:49.934Z,14.95
2023-02-25T10:31:56.911Z,15.45
2023-02-25T10:37:01.866Z,14.45
2023-02-25T10:42:05.824Z,15.77
2023-02-25T10:47:15.833Z,16.73
2023-02-25T10:52:20.698Z,15.85
2023-02-25T10:57:28.268Z,18.35
2023-02-25T11:02:41.656Z,15.68
2023-02-25T11:07:48.172Z,14.27
2023-02-25T11:13:00.393Z,17.30
2023-02-25T11:18:24.854Z,17.88
2023-02-25T11:23:40.801Z,18.50
2023-02-25T11:28:51.232Z,18.63
2023-02-25T11:34:02.745Z,17.50
2023-02-25T11:39:18.324Z,15.05
2023-02-25T11:44:46.380Z,20.55
2023-02-25T11:50:03.210Z,18.52
2023-02-25T11:55:31.471Z,16.67
2023-02-25T12:00:41.405Z,18.50
2023-02-25T12:05:53.429Z,19.75
2023-02-25T12:11:24.236Z,22.05
2023-02-25T12:16:53.913Z,18.55
2023-02-25T12:22:19.686Z,16.60
2023-02-25T12:27:41.473Z,19.33
2023-02-25T12:33:04.703Z,16.75
2023-02-25T12:38:32.907Z,19.73
2023-02-25T12:43:46.742Z,17.10
2023-02-25T12:49:16.482Z,19.42
2023-02-25T12:54:44.584Z,19.17
2023-02-25T12:59:57.091Z,18.10
2023-02-25T13:05:16.875Z,19.63
2023-02-25T13:10:55.086Z,21.13
2023-02-25T13:16:22.714Z,23.05
2023-02-25T13:21:52.642Z,24.13
2023-02-25T13:27:44.533Z,24.77
2023-02-25T13:33:19.457Z,22.35
2023-02-25T13:38:42.645Z,19.60
2023-02-25T13:44:07.725Z,19.80
2023-02-25T13:49:32.623Z,19.83
2023-02-25T13:54:57.854Z,19.98
2023-02-25T14:00:27.177Z,21.98
2023-02-25T14:05:54.082Z,20.55
2023-02-25T14:11:06.772Z,20.90
2023-02-25T14:16:28.440Z,27.92
2023-02-25T14:21:58.484Z,33.40
2023-02-25T14:27:26.621Z,27.70
2023-02-25T14:37:56.980Z,17.50
2023-02-25T14:43:19.620Z,19.75
2023-02-25T14:48:43.076Z,20.73
2023-02-25T14:54:08.475Z,17.50
2023-02-25T14:59:41.413Z,19.92
2023-02-25T15:05:09.117Z,19.98
2023-02-25T15:11:00.606Z,18.00
2023-02-25T15:16:14.200Z,17.50
2023-02-25T15:21:39.060Z,16.80
2023-02-25T15:26:46.680Z,18.42
2023-02-25T15:32:11.946Z,16.83
2023-02-25T15:37:24.580Z,20.00
2023-02-25T15:42:50.789Z,22.45
2023-02-25T15:48:29.541Z,31.70
2023-02-25T15:53:38.040Z,23.45
2023-02-25T15:58:58.348Z,16.98
2023-02-25T16:04:07.637Z,22.90
2023-02-25T16:09:19.065Z,17.65
2023-02-25T16:14:32.773Z,20.55
2023-02-25T16:19:40.812Z,20.42
2023-02-25T16:24:52.383Z,21.27
2023-02-25T16:30:09.655Z,23.27
2023-02-25T16:35:37.006Z,20.03
2023-02-25T16:40:43.731Z,19.27
2023-02-25T16:46:05.036Z,18.85
2023-02-25T16:51:19.064Z,18.38
2023-02-25T16:56:29.630Z,16.35
2023-02-25T17:01:36.053Z,16.33
2023-02-25T17:06:39.918Z,18.23
2023-02-25T17:11:43.893Z,20.73
2023-02-25T17:16:50.085Z,22.48
2023-02-25T17:21:59.724Z,19.63
2023-02-25T17:27:03.803Z,18.33
2023-02-25T17:32:33.983Z,20.17
2023-02-25T17:37:37.869Z,19.40
2023-02-25T17:42:41.763Z,17.50
2023-02-25T17:47:45.531Z,14.65
2023-02-25T17:52:50.757Z,16.02
2023-02-25T17:57:58.894Z,20.17
2023-02-25T18:03:22.134Z,18.63
2023-02-25T18:08:50.774Z,22.23
2023-02-25T18:13:55.718Z,20.88
2023-02-25T18:19:00.650Z,18.75
2023-02-25T18:24:06.805Z,18.58
2023-02-25T18:29:12.069Z,19.05
2023-02-25T18:34:15.842Z,17.95
2023-02-25T18:39:21.563Z,20.23
2023-02-25T18:44:25.414Z,17.02
2023-02-25T18:49:29.198Z,21.98
2023-02-25T18:54:33.200Z,13.65
2023-02-25T18:59:37.269Z,18.90
2023-02-25T19:04:41.172Z,15.93
2023-02-25T19:09:45.159Z,19.05
2023-02-25T19:14:56.298Z,18.73
2023-02-25T19:20:00.160Z,17.25
2023-02-25T19:25:03.869Z,17.50
2023-02-25T19:30:14.298Z,18.17
2023-02-25T19:35:18.389Z,18.17
2023-02-25T19:40:23.086Z,18.47
2023-02-25T19:45:28.071Z,17.70
2023-02-25T19:50:35.488Z,15.43
2023-02-25T19:55:39.688Z,20.67
2023-02-25T20:00:47.545Z,19.52
2023-02-25T20:05:52.945Z,17.75
2023-02-25T20:10:56.739Z,15.60
2023-02-25T20:16:02.288Z,17.30
2023-02-25T20:21:06.951Z,17.85
2023-02-25T20:26:16.064Z,16.27
2023-02-25T20:31:20.719Z,15.43
2023-02-25T20:36:28.278Z,15.55
2023-02-25T20:41:32.430Z,18.27
2023-02-25T20:46:37.592Z,18.27
2023-02-25T20:51:46.978Z,19.13
2023-02-25T20:56:51.842Z,16.73
2023-02-25T21:01:56.798Z,16.73
2023-02-25T21:07:02.015Z,18.30
2023-02-25T21:12:06.993Z,16.15
2023-02-25T21:17:14.265Z,22.87
2023-02-25T21:22:17.996Z,20.33
2023-02-25T21:27:23.695Z,18.80
2023-02-25T21:32:27.440Z,17.17
2023-02-25T21:37:31.993Z,17.67
2023-02-25T21:42:35.840Z,22.17
2023-02-25T21:47:39.675Z,19.20
2023-02-25T21:52:43.634Z,18.23
2023-02-25T21:57:47.437Z,20.07
2023-02-25T22:02:51.849Z,20.00
2023-02-25T22:07:55.634Z,20.97
2023-02-25T22:12:59.541Z,14.80
2023-02-25T22:18:05.071Z,21.53
2023-02-25T22:23:08.886Z,18.73
2023-02-25T22:28:12.830Z,17.43
2023-02-25T22:33:16.598Z,17.70
2023-02-25T22:38:20.578Z,14.23
2023-02-25T22:43:24.686Z,16.03
2023-02-25T22:48:28.565Z,17.87
2023-02-25T22:53:32.511Z,19.80
2023-02-25T22:58:39.595Z,13.77
2023-02-25T23:03:46.718Z,17.60
2023-02-25T23:08:51.433Z,11.20
2023-02-25T23:13:59.250Z,14.87
2023-02-25T23:19:05.380Z,16.83
2023-02-25T23:24:14.433Z,14.87
2023-02-25T23:29:18.412Z,17.70
2023-02-25T23:34:24.591Z,15.53
2023-02-25T23:39:28.746Z,15.20
2023-02-25T23:44:32.731Z,13.83
2023-02-25T23:49:36.491Z,16.07
2023-02-25T23:54:40.601Z,15.30
2023-02-25T23:59:44.438Z,15.90
